Time;durP1;ratioP1;P1;durP2;ratioP2;P2;SDS_P1;SDS_P2;PMS_P1;PMS_P2;Temp;Humidity;BMP_temperature;BMP_pressure;BME280_temperature;BME280_humidity;BME280_pressure;Samples;Min_cycle;Max_cycle;Signal;HPM_P1;HPM_P2
2022/09/20 00:00:45;;;;;;;1999.90;999.90;;;8.30;99.90;;;;;;5079090;28;20032;-65
2022/09/20 00:03:12;;;;;;;1999.90;999.90;;;8.20;99.90;;;;;;5060492;28;20047;-65
2022/09/20 00:05:40;;;;;;;1999.90;999.90;;;8.20;99.90;;;;;;5093740;28;20506;-65
2022/09/20 00:08:09;;;;;;;1999.90;999.90;;;8.10;99.90;;;;;;5103972;28;20048;-65
2022/09/20 00:10:38;;;;;;;1999.90;999.90;;;8.10;99.90;;;;;;5103040;28;20047;-65
2022/09/20 00:13:05;;;;;;;1999.90;999.90;;;8.10;99.90;;;;;;5081788;28;20092;-65
2022/09/20 00:15:31;;;;;;;1999.90;999.90;;;8.00;99.90;;;;;;5088307;28;20689;-65
2022/09/20 00:17:56;;;;;;;1999.90;999.90;;;8.00;99.90;;;;;;5086343;28;20055;-65
2022/09/20 00:20:23;;;;;;;1999.90;999.90;;;7.90;99.90;;;;;;5086641;28;20040;-65
2022/09/20 00:22:48;;;;;;;1999.90;999.90;;;7.90;99.90;;;;;;5072492;28;20043;-65
2022/09/20 00:25:15;;;;;;;1999.90;999.90;;;7.90;99.90;;;;;;5104252;28;20768;-66
2022/09/20 00:27:41;;;;;;;1999.90;999.90;;;7.90;99.90;;;;;;5061240;28;20631;-65
2022/09/20 00:30:08;;;;;;;1999.90;999.90;;;7.80;99.90;;;;;;5086165;28;20068;-65
2022/09/20 00:32:34;;;;;;;1999.90;999.90;;;7.80;99.90;;;;;;5082789;28;20526;-65
2022/09/20 00:35:11;;;;;;;1999.90;999.90;;;7.80;99.90;;;;;;5078758;28;20047;-65
2022/09/20 00:37:40;;;;;;;1999.90;999.90;;;7.80;99.90;;;;;;5095792;28;20036;-65
2022/09/20 00:40:09;;;;;;;1999.90;999.90;;;7.80;99.90;;;;;;5086906;28;20036;-65
2022/09/20 00:42:35;;;;;;;1999.90;999.90;;;7.80;99.90;;;;;;5090247;28;20123;-65
2022/09/20 00:45:06;;;;;;;1999.90;999.90;;;7.80;99.90;;;;;;5089349;28;20032;-65
2022/09/20 00:47:43;;;;;;;1999.90;999.90;;;7.80;99.90;;;;;;5088249;28;20078;-65
2022/09/20 00:50:32;;;;;;;1999.90;999.90;;;7.80;99.90;;;;;;5082886;28;20036;-66
2022/09/20 00:53:15;;;;;;;1999.90;999.90;;;7.80;99.90;;;;;;5091144;28;20044;-65
2022/09/20 00:55:44;;;;;;;;;;;7.80;99.90;;;;;;5069972;28;20392;-65
2022/09/20 00:58:11;;;;;;;1999.90;999.90;;;7.80;99.90;;;;;;5093716;28;19974;-65
2022/09/20 01:00:37;;;;;;;1999.90;999.90;;;7.70;99.90;;;;;;5086667;28;20042;-65
2022/09/20 01:03:06;;;;;;;1999.90;999.90;;;7.70;99.90;;;;;;5059831;28;20039;-65
2022/09/20 01:05:32;;;;;;;1999.90;999.90;;;7.80;99.90;;;;;;5060563;28;20048;-65
2022/09/20 01:07:58;;;;;;;1999.90;999.90;;;7.80;99.90;;;;;;5055910;28;20451;-65
2022/09/20 01:10:24;;;;;;;1999.90;999.90;;;7.70;99.90;;;;;;5097552;28;20130;-65
2022/09/20 01:12:51;;;;;;;1999.90;999.90;;;7.70;99.90;;;;;;5080423;28;20052;-65
2022/09/20 01:15:18;;;;;;;1999.90;999.90;;;7.70;99.90;;;;;;5084173;28;20090;-65
2022/09/20 01:17:48;;;;;;;1999.90;999.90;;;7.70;99.90;;;;;;5085428;28;20044;-65
2022/09/20 01:20:24;;;;;;;1999.90;999.90;;;7.70;99.90;;;;;;5089906;28;20043;-65
2022/09/20 01:23:11;;;;;;;1999.90;999.90;;;7.60;99.90;;;;;;5080533;28;20044;-65
2022/09/20 01:26:19;;;;;;;1999.90;999.90;;;7.60;99.90;;;;;;5052774;28;20491;-65
2022/09/20 01:28:47;;;;;;;1999.90;999.90;;;7.60;99.90;;;;;;5089402;28;20407;-65
2022/09/20 01:31:24;;;;;;;1999.90;999.90;;;7.50;99.90;;;;;;5055125;28;20736;-65
2022/09/20 01:34:13;;;;;;;1999.90;999.90;;;7.50;99.90;;;;;;5088100;28;20067;-65
2022/09/20 01:36:53;;;;;;;1999.90;999.90;;;7.40;99.90;;;;;;5076139;28;20050;-65
2022/09/20 01:39:30;;;;;;;1999.90;999.90;;;7.40;99.90;;;;;;5077508;28;20102;-65
2022/09/20 01:42:04;;;;;;;1999.90;999.90;;;7.30;99.90;;;;;;5072987;28;20043;-65
2022/09/20 01:44:58;;;;;;;1999.90;999.90;;;7.30;99.90;;;;;;5089499;28;20393;-65
2022/09/20 01:47:32;;;;;;;1999.90;999.90;;;7.30;99.90;;;;;;5052697;28;20412;-65
2022/09/20 01:50:16;;;;;;;1999.90;999.90;;;7.20;99.90;;;;;;5076192;28;20060;-65
2022/09/20 01:52:53;;;;;;;;;;;7.20;99.90;;;;;;5081680;28;20395;-65
2022/09/20 01:55:56;;;;;;;1999.90;999.90;;;7.20;99.90;;;;;;5085394;28;19993;-66
2022/09/20 01:58:49;;;;;;;1999.90;999.90;;;7.10;99.90;;;;;;5069520;28;20043;-65
2022/09/20 02:01:18;;;;;;;1999.90;999.90;;;7.00;99.90;;;;;;5092752;28;20046;-65
2022/09/20 02:03:46;;;;;;;1999.90;999.90;;;7.00;99.90;;;;;;5079380;28;20087;-65
2022/09/20 02:07:03;;;;;;;1999.90;999.90;;;7.00;99.90;;;;;;5065419;28;20130;-65
2022/09/20 02:09:35;;;;;;;1999.90;999.90;;;6.90;99.90;;;;;;5035749;28;20400;-65
2022/09/20 02:12:35;;;;;;;1999.90;999.90;;;6.90;99.90;;;;;;5054603;28;20044;-65
2022/09/20 02:15:11;;;;;;;1999.90;999.90;;;6.90;99.90;;;;;;5066502;28;20072;-65
2022/09/20 02:18:15;;;;;;;1999.90;999.90;;;6.80;99.90;;;;;;5088498;28;20056;-65
2022/09/20 02:20:55;;;;;;;;;;;6.80;99.90;;;;;;5079241;28;20038;-65
2022/09/20 02:23:42;;;;;;;1999.90;999.90;;;6.80;99.90;;;;;;5095336;28;20343;-65
2022/09/20 02:26:20;;;;;;;1999.90;999.90;;;6.80;99.90;;;;;;5076412;28;20055;-65
2022/09/20 02:29:06;;;;;;;1999.90;999.90;;;6.70;99.90;;;;;;5073828;28;20388;-65
2022/09/20 02:31:53;;;;;;;1999.90;999.90;;;6.70;99.90;;;;;;5094629;28;20412;-66
2022/09/20 02:34:40;;;;;;;1999.90;999.90;;;6.70;99.90;;;;;;5067780;28;20426;-65
2022/09/20 02:37:18;;;;;;;1999.90;999.90;;;6.70;99.90;;;;;;5086507;28;20072;-65
2022/09/20 02:39:59;;;;;;;1999.90;999.90;;;6.60;99.90;;;;;;5094735;28;20044;-66
2022/09/20 02:42:32;;;;;;;1999.90;999.90;;;6.70;99.90;;;;;;5069689;28;20043;-65
2022/09/20 02:45:14;;;;;;;1999.90;999.90;;;6.70;99.90;;;;;;5089041;28;20032;-65
2022/09/20 02:47:42;;;;;;;1999.90;999.90;;;6.70;99.90;;;;;;5088358;28;20080;-65
2022/09/20 02:50:37;;;;;;;1999.90;999.90;;;6.80;99.90;;;;;;5072013;28;20039;-65
2022/09/20 02:53:14;;;;;;;1999.90;999.90;;;6.80;99.90;;;;;;5080377;28;20036;-65
2022/09/20 02:56:41;;;;;;;1999.90;999.90;;;6.90;99.90;;;;;;5082597;28;20121;-65
2022/09/20 02:59:34;;;;;;;1999.90;999.90;;;6.90;99.90;;;;;;5021354;28;20434;-65
2022/09/20 03:02:20;;;;;;;1999.90;999.90;;;6.90;99.90;;;;;;4999044;28;20034;-65
2022/09/20 03:05:13;;;;;;;1999.90;999.90;;;7.00;99.90;;;;;;5017596;28;20042;-65
2022/09/20 03:07:57;;;;;;;;;;;7.10;99.90;;;;;;5011192;28;20427;-65
2022/09/20 03:10:52;;;;;;;1999.90;999.90;;;7.20;99.90;;;;;;5005887;28;19995;-65
2022/09/20 03:13:54;;;;;;;1999.90;999.90;;;7.30;99.90;;;;;;5019961;28;20046;-65
2022/09/20 03:16:42;;;;;;;1999.90;999.90;;;7.40;99.90;;;;;;5017043;28;20057;-65
2022/09/20 03:19:33;;;;;;;1999.90;999.90;;;7.40;99.90;;;;;;4988016;28;20056;-65
2022/09/20 03:22:07;;;;;;;1999.90;999.90;;;7.50;99.90;;;;;;5018354;28;20041;-65
2022/09/20 03:24:45;;;;;;;1999.90;999.90;;;7.60;99.90;;;;;;5025043;28;20053;-65
2022/09/20 03:27:31;;;;;;;1999.90;999.90;;;7.70;99.90;;;;;;5012923;28;20418;-65
2022/09/20 03:30:03;;;;;;;1999.90;999.90;;;7.80;99.90;;;;;;5073921;28;20715;-65
2022/09/20 03:33:06;;;;;;;1999.90;999.90;;;7.80;99.90;;;;;;5048636;28;20048;-65
2022/09/20 03:35:53;;;;;;;1999.90;999.90;;;7.90;99.90;;;;;;5088744;28;20039;-65
2022/09/20 03:38:53;;;;;;;1999.90;999.90;;;8.00;99.90;;;;;;5053902;28;20040;-65
2022/09/20 03:41:37;;;;;;;1999.90;999.90;;;8.10;99.90;;;;;;5093020;28;20706;-65
2022/09/20 03:44:14;;;;;;;1999.90;999.90;;;8.20;99.90;;;;;;5074667;28;20441;-65
2022/09/20 03:46:47;;;;;;;1999.90;999.90;;;8.20;99.90;;;;;;5071967;28;20040;-65
2022/09/20 03:49:35;;;;;;;1999.90;999.90;;;8.30;99.90;;;;;;5081394;28;20500;-65
2022/09/20 03:52:28;;;;;;;1999.90;999.90;;;8.30;99.90;;;;;;5065238;28;20126;-65
2022/09/20 03:55:38;;;;;;;1999.90;999.90;;;8.40;99.90;;;;;;5102223;28;20044;-65
2022/09/20 03:58:03;;;;;;;1999.90;999.90;;;8.50;99.90;;;;;;5082058;28;20047;-66
2022/09/20 04:00:35;;;;;;;1999.90;999.90;;;8.50;99.90;;;;;;5090571;28;20500;-65
2022/09/20 04:03:24;;;;;;;1999.90;999.90;;;8.60;99.90;;;;;;5072844;28;20051;-65
2022/09/20 04:05:55;;;;;;;1999.90;999.90;;;8.70;99.90;;;;;;5102784;28;20423;-65
2022/09/20 04:08:32;;;;;;;1999.90;999.90;;;8.80;99.90;;;;;;5086786;28;20101;-65
2022/09/20 04:11:15;;;;;;;1999.90;999.90;;;8.80;99.90;;;;;;5065881;28;20433;-65
2022/09/20 04:13:51;;;;;;;1999.90;999.90;;;8.80;99.90;;;;;;5082070;28;20048;-65
2022/09/20 04:16:30;;;;;;;1999.90;999.90;;;8.80;99.90;;;;;;5064465;28;20503;-65
2022/09/20 04:19:12;;;;;;;1999.90;999.90;;;8.90;99.90;;;;;;5067287;28;20040;-65
2022/09/20 04:21:37;;;;;;;1999.90;999.90;;;8.90;99.90;;;;;;5073137;28;20040;-65
2022/09/20 04:24:09;;;;;;;1999.90;999.90;;;8.90;99.90;;;;;;5107510;28;20471;-66
2022/09/20 04:26:40;;;;;;;1999.90;999.90;;;8.90;99.90;;;;;;5067701;28;20048;-65
2022/09/20 04:29:25;;;;;;;1999.90;999.90;;;8.90;99.90;;;;;;5092394;28;20499;-65
2022/09/20 04:32:06;;;;;;;1999.90;999.90;;;9.00;99.90;;;;;;5072454;28;20145;-65
2022/09/20 04:37:32;;;;;;;1999.90;999.90;;;9.00;99.90;;;;;;5096531;28;20441;-65
2022/09/20 04:40:23;;;;;;;1999.90;999.90;;;9.00;99.90;;;;;;5067834;28;20036;-65
2022/09/20 04:43:01;;;;;;;1999.90;999.90;;;9.00;99.90;;;;;;5057515;28;20135;-66
2022/09/20 04:45:37;;;;;;;1999.90;999.90;;;9.00;99.90;;;;;;5070946;28;20079;-65
2022/09/20 04:48:20;;;;;;;1999.90;999.90;;;9.00;99.90;;;;;;5057319;28;20040;-65
2022/09/20 04:50:59;;;;;;;1999.90;999.90;;;9.00;99.90;;;;;;5062526;28;20491;-65
2022/09/20 04:53:58;;;;;;;1999.90;999.90;;;9.00;99.90;;;;;;5095301;28;20048;-65
2022/09/20 04:56:49;;;;;;;1999.90;999.90;;;9.00;99.90;;;;;;5068057;28;20538;-65
2022/09/20 04:59:44;;;;;;;1999.90;999.90;;;9.00;99.90;;;;;;5091397;28;20744;-65
2022/09/20 05:03:01;;;;;;;1999.90;999.90;;;9.00;99.90;;;;;;5067949;28;20067;-65
2022/09/20 05:06:05;;;;;;;1999.90;999.90;;;9.10;99.90;;;;;;4966593;28;20076;-65
2022/09/20 05:08:39;;;;;;;1999.90;999.90;;;9.10;99.90;;;;;;4985195;28;20060;-65
2022/09/20 05:11:40;;;;;;;1999.90;999.90;;;9.10;99.90;;;;;;4970610;28;20141;-65
2022/09/20 05:14:21;;;;;;;1999.90;999.90;;;9.20;99.90;;;;;;4990067;28;20042;-65
2022/09/20 05:17:10;;;;;;;1999.90;999.90;;;9.20;99.90;;;;;;4988087;28;20494;-65
2022/09/20 05:19:45;;;;;;;1999.90;999.90;;;9.20;99.90;;;;;;4982886;28;20038;-65
2022/09/20 05:22:52;;;;;;;1999.90;999.90;;;9.30;99.90;;;;;;4993898;28;20522;-65
2022/09/20 05:25:50;;;;;;;1999.90;999.90;;;9.30;99.90;;;;;;4913629;29;20105;-65
2022/09/20 05:28:35;;;;;;;1999.90;999.90;;;9.50;99.90;;;;;;4907707;29;20047;-65
2022/09/20 05:31:20;;;;;;;1999.90;999.90;;;9.60;99.90;;;;;;4909636;29;20060;-65
2022/09/20 05:34:10;;;;;;;1999.90;999.90;;;9.60;99.90;;;;;;4911843;29;20100;-65
2022/09/20 05:36:51;;;;;;;1999.90;999.90;;;9.70;99.90;;;;;;4977326;28;20054;-65
2022/09/20 05:39:32;;;;;;;1999.90;999.90;;;9.70;99.90;;;;;;4985513;28;20054;-65
2022/09/20 05:42:11;;;;;;;1999.90;999.90;;;9.80;99.90;;;;;;4989738;28;20046;-65
2022/09/20 05:45:09;;;;;;;1999.90;999.90;;;9.90;99.90;;;;;;5006686;28;20431;-65
2022/09/20 05:47:48;;;;;;;1999.90;999.90;;;10.00;99.90;;;;;;4982654;28;20398;-65
2022/09/20 05:50:28;;;;;;;1999.90;999.90;;;10.10;99.90;;;;;;4999446;28;20054;-65
2022/09/20 05:53:12;;;;;;;1999.90;999.90;;;10.10;99.90;;;;;;4990260;28;20074;-65
2022/09/20 05:55:59;;;;;;;1999.90;999.90;;;10.20;99.90;;;;;;4992484;28;20054;-65
2022/09/20 05:58:42;;;;;;;1999.90;999.90;;;10.20;99.90;;;;;;4992339;28;20041;-65
2022/09/20 06:01:12;;;;;;;1999.90;999.90;;;10.20;99.90;;;;;;4978952;28;20398;-65
2022/09/20 06:03:46;;;;;;;1999.90;999.90;;;10.20;99.90;;;;;;5078433;28;20517;-65
2022/09/20 06:06:14;;;;;;;1999.90;999.90;;;10.20;99.90;;;;;;5083341;28;20117;-65
2022/09/20 06:09:16;;;;;;;1999.90;999.90;;;10.20;99.90;;;;;;5072428;28;20059;-65
2022/09/20 06:11:57;;;;;;;1999.90;999.90;;;10.30;99.90;;;;;;5060053;28;20071;-65
2022/09/20 06:14:42;;;;;;;1999.90;999.90;;;10.30;99.90;;;;;;5063365;28;20058;-65
2022/09/20 06:17:17;;;;;;;1999.90;999.90;;;10.40;99.90;;;;;;5046546;28;20041;-65
2022/09/20 06:19:55;;;;;;;1999.90;999.90;;;10.40;99.90;;;;;;5082794;28;20042;-65
2022/09/20 06:22:27;;;;;;;1999.90;999.90;;;10.40;99.90;;;;;;5074671;28;20078;-65
2022/09/20 06:25:00;;;;;;;1999.90;999.90;;;10.40;99.90;;;;;;5038956;28;20046;-65
2022/09/20 06:27:55;;;;;;;1999.90;999.90;;;10.50;99.90;;;;;;5070315;28;20119;-65
2022/09/20 06:30:30;;;;;;;1999.90;999.90;;;10.50;99.90;;;;;;5079958;28;20090;-65
2022/09/20 06:33:16;;;;;;;1999.90;999.90;;;10.50;99.90;;;;;;5082188;28;20158;-65
2022/09/20 06:41:25;;;;;;;1999.90;999.90;;;10.60;99.90;;;;;;5083022;28;20043;-65
2022/09/20 06:41:56;;;;;;;1999.90;999.90;;;10.70;99.90;;;;;;5063740;28;20068;-65
2022/09/20 06:44:22;;;;;;;1999.90;999.90;;;10.80;99.90;;;;;;5049696;28;20055;-65
2022/09/20 06:46:48;;;;;;;1999.90;999.90;;;10.80;99.90;;;;;;5063759;28;20048;-65
2022/09/20 06:49:13;;;;;;;1999.90;999.90;;;10.90;99.90;;;;;;5084811;28;20117;-65
2022/09/20 06:51:39;;;;;;;1999.90;999.90;;;11.00;99.90;;;;;;5056279;28;20119;-65
2022/09/20 06:54:07;;;;;;;1999.90;999.90;;;11.10;99.90;;;;;;5082895;28;20036;-65
2022/09/20 06:56:35;;;;;;;1999.90;999.90;;;11.20;99.90;;;;;;5096664;28;20747;-65
2022/09/20 06:59:02;;;;;;;1999.90;999.90;;;11.30;99.90;;;;;;5076035;28;20040;-65
2022/09/20 07:01:28;;;;;;;1999.90;999.90;;;11.40;99.90;;;;;;5065158;28;20364;-65
2022/09/20 07:03:53;;;;;;;1999.90;999.90;;;11.50;99.90;;;;;;5053913;28;20123;-65
2022/09/20 07:06:19;;;;;;;1999.90;999.90;;;11.60;99.90;;;;;;5084888;28;20659;-65
2022/09/20 07:08:47;;;;;;;1999.90;999.90;;;11.60;99.90;;;;;;5082322;28;20404;-65
2022/09/20 07:11:15;;;;;;;1999.90;999.90;;;11.70;99.90;;;;;;5068447;28;20119;-65
2022/09/20 07:13:48;;;;;;;1999.90;999.90;;;11.80;99.90;;;;;;5031980;28;20097;-66
2022/09/20 07:16:14;;;;;;;1999.90;999.90;;;11.90;99.90;;;;;;5045607;28;20055;-66
2022/09/20 07:18:40;;;;;;;1999.90;999.90;;;12.00;99.90;;;;;;5073309;28;20036;-66
2022/09/20 07:21:07;;;;;;;1999.90;999.90;;;12.10;99.90;;;;;;5072580;28;20122;-66
2022/09/20 07:23:33;;;;;;;1999.90;999.90;;;12.10;99.90;;;;;;5101698;28;20039;-66
2022/09/20 07:25:59;;;;;;;1999.90;999.90;;;12.20;99.90;;;;;;5072179;28;20039;-66
2022/09/20 07:28:29;;;;;;;1999.90;999.90;;;12.30;99.90;;;;;;5079708;28;20052;-66
2022/09/20 07:30:55;;;;;;;1999.90;999.90;;;12.30;99.90;;;;;;5078272;28;20094;-66
2022/09/20 07:33:21;;;;;;;1999.90;999.90;;;12.30;99.90;;;;;;5087844;28;20083;-65
2022/09/20 07:35:53;;;;;;;1999.90;999.90;;;12.30;99.90;;;;;;5066583;28;20123;-66
2022/09/20 07:38:19;;;;;;;1999.90;999.90;;;12.30;99.90;;;;;;5067675;28;20116;-66
2022/09/20 07:40:45;;;;;;;1999.90;999.90;;;12.30;99.90;;;;;;5076211;28;20072;-66
2022/09/20 07:43:11;;;;;;;1999.90;999.90;;;12.40;99.90;;;;;;5067800;28;20083;-66
2022/09/20 07:45:38;;;;;;;1999.90;999.90;;;12.40;99.90;;;;;;5068651;28;20071;-65
2022/09/20 07:48:08;;;;;;;1999.90;999.90;;;12.30;99.90;;;;;;5060510;28;20036;-66
2022/09/20 07:50:34;;;;;;;1999.90;999.90;;;12.30;99.90;;;;;;5087597;28;20498;-66
2022/09/20 07:53:00;;;;;;;1999.90;999.90;;;12.40;99.90;;;;;;5073268;28;20043;-65
2022/09/20 07:55:25;;;;;;;1999.90;999.90;;;12.50;99.90;;;;;;5093124;28;20036;-66
2022/09/20 07:57:51;;;;;;;1999.90;999.90;;;12.50;99.90;;;;;;5072906;28;20165;-66
2022/09/20 08:00:17;;;;;;;1999.90;999.90;;;12.80;99.90;;;;;;5062844;28;20040;-65
2022/09/20 08:02:44;;;;;;;1999.90;999.90;;;12.90;99.90;;;;;;5071885;28;20487;-65
2022/09/20 08:05:10;;;;;;;1999.90;999.90;;;13.00;99.90;;;;;;5062919;28;20066;-66
2022/09/20 08:07:37;;;;;;;1999.90;999.90;;;13.10;99.90;;;;;;5083899;28;20051;-65
2022/09/20 08:10:03;;;;;;;1999.90;999.90;;;13.30;99.90;;;;;;5063048;28;20043;-65
2022/09/20 08:12:29;;;;;;;1999.90;999.90;;;13.40;99.90;;;;;;5078290;28;20058;-65
2022/09/20 08:14:55;;;;;;;1999.90;999.90;;;13.40;99.90;;;;;;5056664;28;20123;-66
2022/09/20 08:17:20;;;;;;;1999.90;999.90;;;13.50;99.90;;;;;;5084526;28;20036;-66
2022/09/20 08:19:46;;;;;;;1999.90;999.90;;;13.50;99.90;;;;;;5085578;28;20114;-66
2022/09/20 08:22:12;;;;;;;1999.90;999.90;;;13.60;99.90;;;;;;5087225;28;20035;-65
2022/09/20 08:24:38;;;;;;;1999.90;999.90;;;13.60;99.90;;;;;;5092151;28;20035;-66
2022/09/20 08:27:04;;;;;;;1999.90;999.90;;;13.80;99.90;;;;;;5077532;28;20044;-65
2022/09/20 08:29:29;;;;;;;1999.90;999.90;;;14.00;99.90;;;;;;5063565;28;20048;-66
2022/09/20 08:31:57;;;;;;;1999.90;999.90;;;14.10;99.90;;;;;;5089942;28;20048;-66
2022/09/20 08:34:23;;;;;;;1999.90;999.90;;;14.20;99.90;;;;;;5052628;28;20040;-65
2022/09/20 08:36:51;;;;;;;1999.90;999.90;;;14.30;99.90;;;;;;5088705;28;20052;-65
2022/09/20 08:39:17;;;;;;;1999.90;999.90;;;14.70;99.90;;;;;;5071365;28;20067;-66
2022/09/20 08:41:56;;;;;;;1999.90;999.90;;;15.00;99.90;;;;;;5083356;28;20046;-66
2022/09/20 08:44:31;;;;;;;1999.90;999.90;;;15.30;99.90;;;;;;5064018;28;20072;-66
2022/09/20 08:47:08;;;;;;;1999.90;999.90;;;15.70;99.90;;;;;;5083031;28;20043;-66
2022/09/20 08:49:34;;;;;;;1999.90;999.90;;;16.40;99.90;;;;;;5060357;28;20082;-66
2022/09/20 08:52:02;;;;;;;1999.90;999.90;;;17.40;99.90;;;;;;5086586;28;20044;-66
2022/09/20 08:54:32;;;;;;;1999.90;999.90;;;18.20;99.90;;;;;;5089973;28;20383;-66
2022/09/20 08:57:04;;;;;;;1999.90;999.90;;;18.90;99.90;;;;;;5089469;28;20044;-66
2022/09/20 08:59:30;;;;;;;1999.90;999.90;;;19.30;99.90;;;;;;5084621;28;20101;-66
2022/09/20 09:01:57;;;;;;;1999.90;999.90;;;19.10;99.90;;;;;;5072982;28;20047;-66
2022/09/20 09:04:30;;;;;;;1999.90;999.90;;;18.70;99.90;;;;;;5064189;28;20028;-66
2022/09/20 09:06:55;;;;;;;1999.90;999.90;;;19.20;99.90;;;;;;5071217;28;20040;-66
2022/09/20 09:09:27;;;;;;;1999.90;999.90;;;19.70;99.90;;;;;;5079263;28;20044;-66
2022/09/20 09:11:54;;;;;;;1999.90;999.90;;;19.40;99.90;;;;;;5082241;28;20415;-66
2022/09/20 09:14:51;;;;;;;1999.90;999.90;;;18.60;99.90;;;;;;5085962;28;20040;-66
2022/09/20 09:17:25;;;;;;;1999.90;999.90;;;18.00;99.90;;;;;;5075958;28;20040;-66
2022/09/20 09:19:58;;;;;;;1999.90;999.90;;;17.40;99.90;;;;;;5090177;28;20044;-66
2022/09/20 09:22:44;;;;;;;1999.90;999.90;;;16.90;99.90;;;;;;5054605;28;20048;-66
2022/09/20 09:25:16;;;;;;;1999.90;999.90;;;16.60;99.90;;;;;;5070586;28;20045;-66
2022/09/20 09:28:01;;;;;;;1999.90;999.90;;;16.40;99.90;;;;;;5087521;28;20087;-66
2022/09/20 09:30:30;;;;;;;1999.90;999.90;;;16.30;99.90;;;;;;5056514;28;20049;-66
2022/09/20 09:33:26;;;;;;;1999.90;999.90;;;16.20;99.90;;;;;;5061755;28;20060;-66
2022/09/20 09:36:07;;;;;;;1999.90;999.90;;;16.10;99.90;;;;;;5063445;28;20504;-66
2022/09/20 09:38:35;;;;;;;1999.90;999.90;;;16.10;99.90;;;;;;5064487;28;20048;-66
2022/09/20 09:41:16;;;;;;;1999.90;999.90;;;16.10;99.90;;;;;;5049036;28;20043;-66
2022/09/20 09:43:42;;;;;;;1999.90;999.90;;;16.10;99.90;;;;;;5067791;28;20047;-66
2022/09/20 09:46:22;;;;;;;1999.90;999.90;;;16.00;99.90;;;;;;5047584;28;20055;-66
2022/09/20 09:49:06;;;;;;;1999.90;999.90;;;16.00;99.90;;;;;;5060049;28;20805;-66
2022/09/20 09:51:32;;;;;;;1999.90;999.90;;;16.00;99.90;;;;;;5084547;28;20089;-66
2022/09/20 09:53:58;;;;;;;1999.90;999.90;;;16.00;99.90;;;;;;5086809;28;20089;-66
2022/09/20 09:57:07;;;;;;;1999.90;999.90;;;16.00;99.90;;;;;;5083921;28;20044;-66
2022/09/20 09:59:54;;;;;;;1999.90;999.90;;;16.10;99.90;;;;;;5059199;28;20040;-67
2022/09/20 10:02:45;;;;;;;1999.90;999.90;;;16.10;99.90;;;;;;5088993;28;20046;-66
2022/09/20 10:05:48;;;;;;;1999.90;999.90;;;16.20;99.90;;;;;;5089366;28;20788;-66
2022/09/20 10:08:28;;;;;;;1999.90;999.90;;;16.40;99.90;;;;;;5039547;28;20067;-66
2022/09/20 10:11:20;;;;;;;1999.90;999.90;;;16.50;99.90;;;;;;5084574;28;20122;-66
2022/09/20 10:14:21;;;;;;;1999.90;999.90;;;16.70;99.90;;;;;;5080318;28;20040;-66
2022/09/20 10:17:11;;;;;;;1999.90;999.90;;;16.80;99.90;;;;;;5080320;28;20047;-66
2022/09/20 10:19:54;;;;;;;1999.90;999.90;;;16.80;99.90;;;;;;5057149;28;20036;-66
2022/09/20 10:22:45;;;;;;;1999.90;999.90;;;16.90;99.90;;;;;;5061471;28;20115;-66
2022/09/20 10:25:32;;;;;;;1999.90;999.90;;;16.90;99.90;;;;;;5083646;28;20052;-67
2022/09/20 10:28:47;;;;;;;1999.90;999.90;;;17.00;99.90;;;;;;5083055;28;20039;-66
2022/09/20 10:31:27;;;;;;;1999.90;999.90;;;17.00;99.90;;;;;;5079954;28;20055;-66
2022/09/20 10:34:11;;;;;;;1999.90;999.90;;;17.00;99.90;;;;;;5077758;28;20051;-66
2022/09/20 10:36:56;;;;;;;1999.90;999.90;;;17.20;99.90;;;;;;5071942;28;20531;-66
2022/09/20 10:39:25;;;;;;;1999.90;999.90;;;17.70;99.90;;;;;;5088397;28;20123;-66
2022/09/20 10:45:18;;;;;;;1999.90;999.90;;;18.40;99.90;;;;;;5076478;28;20048;-66
2022/09/20 10:48:00;;;;;;;1999.90;999.90;;;18.60;99.90;;;;;;5058108;28;20040;-66
2022/09/20 10:50:44;;;;;;;1999.90;999.90;;;18.70;99.90;;;;;;5081398;28;20046;-66
2022/09/20 10:53:43;;;;;;;1999.90;999.90;;;18.70;99.90;;;;;;5063670;28;20040;-66
2022/09/20 10:56:20;;;;;;;1999.90;999.90;;;18.70;99.90;;;;;;5072734;28;20048;-66
2022/09/20 10:58:56;;;;;;;1999.90;999.90;;;18.90;99.90;;;;;;5070600;28;20067;-66
2022/09/20 11:01:28;;;;;;;1999.90;999.90;;;19.30;99.90;;;;;;5055583;28;20040;-66
2022/09/20 11:04:17;;;;;;;1999.90;999.90;;;19.50;99.90;;;;;;5077660;28;20766;-66
2022/09/20 11:06:50;;;;;;;1999.90;999.90;;;19.50;99.90;;;;;;5041688;28;20085;-66
2022/09/20 11:09:22;;;;;;;1999.90;999.90;;;19.30;99.90;;;;;;5070208;28;20391;-66
2022/09/20 11:12:03;;;;;;;1999.90;999.90;;;18.80;99.90;;;;;;5060653;28;20617;-66
2022/09/20 11:14:35;;;;;;;1999.90;999.90;;;18.40;99.90;;;;;;5075958;28;20102;-66
2022/09/20 11:17:08;;;;;;;;;;;18.10;99.90;;;;;;5083224;28;20081;-66
2022/09/20 11:19:33;;;;;;;1999.90;999.90;;;17.90;99.90;;;;;;5054084;28;19921;-66
2022/09/20 11:22:22;;;;;;;1999.90;999.90;;;17.70;99.90;;;;;;5049059;28;20062;-66
2022/09/20 11:25:05;;;;;;;1999.90;999.90;;;17.40;99.90;;;;;;5078891;28;20049;-66
2022/09/20 11:27:56;;;;;;;1999.90;999.90;;;17.20;99.90;;;;;;5073213;28;20097;-66
2022/09/20 11:30:23;;;;;;;1999.90;999.90;;;17.00;99.90;;;;;;5076844;28;20040;-66
2022/09/20 11:33:18;;;;;;;1999.90;999.90;;;17.00;99.90;;;;;;5043208;28;20048;-66
2022/09/20 11:35:51;;;;;;;1999.90;999.90;;;16.90;99.90;;;;;;5060136;28;20044;-66
2022/09/20 11:38:31;;;;;;;1999.90;999.90;;;16.80;99.90;;;;;;5076626;28;20036;-66
2022/09/20 11:41:03;;;;;;;1999.90;999.90;;;16.80;99.90;;;;;;5077778;28;20040;-65
2022/09/20 11:43:31;;;;;;;1999.90;999.90;;;17.00;99.90;;;;;;5082857;28;20132;-66
2022/09/20 11:46:01;;;;;;;1999.90;999.90;;;17.10;99.90;;;;;;5079873;28;20079;-65
2022/09/20 11:48:43;;;;;;;1999.90;999.90;;;17.50;99.90;;;;;;5079148;28;20058;-66
2022/09/20 11:51:28;;;;;;;1999.90;999.90;;;17.70;99.90;;;;;;5083619;28;20052;-66
2022/09/20 11:54:11;;;;;;;1999.90;999.90;;;17.80;99.90;;;;;;5083386;28;20048;-66
2022/09/20 11:56:37;;;;;;;;;;;17.90;99.90;;;;;;5075811;28;20103;-66
2022/09/20 11:59:06;;;;;;;1999.90;999.90;;;18.20;99.90;;;;;;5080850;28;19920;-66
2022/09/20 12:01:34;;;;;;;1999.90;999.90;;;18.30;99.90;;;;;;5092060;28;20760;-65
2022/09/20 12:04:22;;;;;;;1999.90;999.90;;;18.30;99.90;;;;;;5080200;28;20134;-66
2022/09/20 12:07:00;;;;;;;1999.90;999.90;;;18.30;99.90;;;;;;5072802;28;20036;-65
2022/09/20 12:09:33;;;;;;;1999.90;999.90;;;18.60;99.90;;;;;;5085673;28;20054;-66
2022/09/20 12:12:12;;;;;;;1999.90;999.90;;;18.90;99.90;;;;;;5089208;28;20043;-66
2022/09/20 12:14:37;;;;;;;1999.90;999.90;;;18.90;99.90;;;;;;5076428;28;20040;-66
2022/09/20 12:17:04;;;;;;;1999.90;999.90;;;18.60;99.90;;;;;;5061656;28;20744;-66
2022/09/20 12:19:30;;;;;;;1999.90;999.90;;;18.20;99.90;;;;;;5058682;28;20498;-66
2022/09/20 12:21:58;;;;;;;1999.90;999.90;;;17.80;99.90;;;;;;5088585;28;20043;-66
2022/09/20 12:24:25;;;;;;;1999.90;999.90;;;17.50;99.90;;;;;;5058055;28;20285;-66
2022/09/20 12:26:58;;;;;;;1999.90;999.90;;;17.20;99.90;;;;;;5054780;28;20045;-66
2022/09/20 12:29:23;;;;;;;1999.90;999.90;;;17.00;99.90;;;;;;5061011;28;20399;-66
2022/09/20 12:31:51;;;;;;;1999.90;999.90;;;16.90;99.90;;;;;;5055986;28;20048;-66
2022/09/20 12:34:17;;;;;;;1999.90;999.90;;;17.00;99.90;;;;;;5087608;28;20044;-66
2022/09/20 12:36:42;;;;;;;1999.90;999.90;;;17.20;99.90;;;;;;5086349;28;20055;-66
2022/09/20 12:39:11;;;;;;;1999.90;999.90;;;17.30;99.90;;;;;;5087975;28;20419;-65
2022/09/20 12:42:21;;;;;;;1999.90;999.90;;;17.50;99.90;;;;;;5082446;28;20450;-65
2022/09/20 12:44:50;;;;;;;1999.90;999.90;;;17.40;99.90;;;;;;5075160;28;20420;-65
2022/09/20 12:47:36;;;;;;;1999.90;999.90;;;17.10;99.90;;;;;;5080430;28;20040;-66
2022/09/20 12:53:03;;;;;;;1999.90;999.90;;;16.80;99.90;;;;;;5058264;28;20130;-66
2022/09/20 12:56:00;;;;;;;1999.90;999.90;;;16.90;99.90;;;;;;5071034;28;20056;-66
2022/09/20 12:58:43;;;;;;;1999.90;999.90;;;17.00;99.90;;;;;;5061071;28;20049;-66
2022/09/20 13:01:09;;;;;;;1999.90;999.90;;;17.10;99.90;;;;;;5052350;28;20044;-66
2022/09/20 13:03:37;;;;;;;1999.90;999.90;;;17.10;99.90;;;;;;5088966;28;20098;-65
2022/09/20 13:06:05;;;;;;;1999.90;999.90;;;17.00;99.90;;;;;;5081754;28;20089;-65
2022/09/20 13:08:38;;;;;;;1999.90;999.90;;;17.00;99.90;;;;;;5083810;28;20047;-66